LIRF Airport Information

Runway Information
Runway 07 Length 10849 ft width 148 ft
Elevation 7 ft Threshold 1365 ft Heading 70
Runway 25 Length 10849 ft Width 148 ft
Elevation 7 ft Threshold 0 ft Heading 250
Runway 16C Length 11818 ft width 148 ft
Elevation 11 ft Threshold 0 ft Heading 163
Runway 34C Length 11818 ft Width 148 ft
Elevation 4 ft Threshold 0 ft Heading 343
Runway 16L Length 12795 ft width 197 ft
Elevation 14 ft Threshold 0 ft Heading 163
Runway 34R Length 12795 ft Width 197 ft
Elevation 7 ft Threshold 0 ft Heading 343
Runway 16R Length 12795 ft width 197 ft
Elevation 7 ft Threshold 0 ft Heading 163
Runway 34L Length 12795 ft Width 197 ft
Elevation 8 ft Threshold 1053 ft Heading 343
Airport Frequencies
Type ARR Name ROMA DIREC Frequency 119.2 MHZ
Type ATIS Name ATIS Frequency 114.9 MHZ
Type CLD Name FIUME RAMP Frequency 121.725 MHZ
Type GND Name FIUME GND/ Frequency 121.8 MHZ
Type TWR Name FIUME TWR Frequency 118.7 MHZ
Airport Navaids
Type NDB Name Fiumicino Frequency 354 KHZ
Type NDB Name Fiumicino Frequency 421 KHZ
Type NDB Name Fiumicino Frequency 345 KHZ
Type VOR-DME Name Ostia Frequency 114900 KHZ
Type NDB Name Ostia Frequency 321 KHZ
Airport Weather Information & NOTAM
ADDS - METARS form results

(0004 UTC 17 February 2019)
Data provider http://aviationweather.gov/metar/data/
 
METAR text: LIRF 162350Z 08003KT CAVOK 03/02 Q1030 NOSIG
Conditions at: LIRF (ROME/FIUMICINO , IT) observed 2350 UTC 16 February 2019
Temperature: 3.0°C (37°F)
Dewpoint: 2.0°C (36°F) [RH = 93%]
Pressure (altimeter): 30.41 inches Hg (1030.0 mb)
Winds: from the E (80 degrees) at 3 MPH (3 knots; 1.5 m/s)
Visibility: 6 or more miles (10+ km)
Ceiling: ceiling and visibility are OK
Clouds: unknown
Weather: no significant weather observed at this time

METAR text: LIRF 162320Z VRB02KT CAVOK 03/03 Q1030 NOSIG
Conditions at: LIRF (ROME/FIUMICINO , IT) observed 2320 UTC 16 February 2019
Temperature: 3.0°C (37°F)
Dewpoint: 3.0°C (37°F) [RH = 100%]
Pressure (altimeter): 30.41 inches Hg (1030.0 mb)
Winds: variable direction winds at 2 MPH (2 knots; 1.0 m/s)
Visibility: 6 or more miles (10+ km)
Ceiling: ceiling and visibility are OK
Clouds: unknown
Weather: no significant weather observed at this time

Forecast for: LIRF (ROME/FIUMICINO , IT)
Text: TAF LIRF 162300Z 1700/1806 VRB06KT CAVOK
Forecast period: 0000 UTC 17 February 2019 to 0600 UTC 18 February 2019
Forecast type: FROM: standard forecast or significant change
Winds: variable direction winds at 7 MPH (6 knots; 3.1 m/s)
Visibility: 6 or more miles 10+ km)
Ceiling: unknown
Clouds: missing
Weather: NSW  (no significant weather)
Text: TEMPO 1800/1806 4000 BR
Forecast period: 0000 to 0600 UTC 18 February 2019
Forecast type: TEMPORARY: The following changes expected for less than half the time period
Visibility: 2.49 miles (4.01 km)
Ceiling: unknown
Clouds: missing
Weather: BR  (mist)